Buoy 62722

sailwx.info

Track history (hours):
 
Tides and Currents Weather Stations Pressure Air Temp Water Temp Dewpoint Dewpoint Depression Visibility Wind Speed Wind Dir Waves Ship Positions

Drifting buoy 62722

Last reported at 2016-Feb-06 12:19 UTC. Time now 2016-Feb-06 13:38 UTC.
Position N 37°52' W 000°05'.

Water temperature 15.9 ° C

Date/timePositionNaut miles runAvg speedWind from/ knotsBaromVisibWave heightAir tempDewpointWater temp
2016-Feb-06 12:19N 37°52' W 000°05'1 0.8 15.9
2016-Feb-06 11:23N 37°53' W 000°05'0 0.2 15.9
2016-Feb-06 10:30N 37°53' W 000°05'0 2.8 15.8
2016-Feb-06 10:25N 37°53' W 000°05'0 0.0 15.8
2016-Feb-06 09:44N 37°53' W 000°05'0 2.8 15.8
2016-Feb-06 09:36N 37°53' W 000°05'0 0.1 15.8
2016-Feb-06 08:48N 37°53' W 000°05'0 0.0 15.8
2016-Feb-06 07:37N 37°53' W 000°05'0 0.0 15.8
2016-Feb-06 07:33N 37°53' W 000°05'0 0.4 15.8
2016-Feb-06 06:34N 37°53' W 000°04'0 0.7 15.8
2016-Feb-06 05:53N 37°53' W 000°04'0 2.6 15.8
2016-Feb-06 05:46N 37°53' W 000°04'0 0.0 15.8
2016-Feb-06 04:55N 37°53' W 000°04'1 0.5 15.7
2016-Feb-06 02:36N 37°53' W 000°03'3 0.6 15.8
2016-Feb-05 22:15N 37°53' E 000°01'1 1.1 15.8
2016-Feb-05 21:25N 37°53' E 000°02'0 0.2 15.8
2016-Feb-05 20:32N 37°53' E 000°02'0 1.0 15.8
2016-Feb-05 20:25N 37°53' E 000°02'0 0.0 15.8
2016-Feb-05 19:47N 37°53' E 000°02'1 4.5 15.8
2016-Feb-05 19:38N 37°53' E 000°03'0 0.0 15.8
2016-Feb-05 19:19N 37°53' E 000°03'1 6.1 15.8
2016-Feb-05 19:11N 37°54' E 000°03'0 0.0 15.8
2016-Feb-05 18:50N 37°54' E 000°03'0 0.3
2016-Feb-05 17:37N 37°54' E 000°03'014.7 15.9
2016-Feb-05 17:35N 37°54' E 000°03'0 0.0 15.9
2016-Feb-05 17:26N 37°54' E 000°03'1 0.2
2016-Feb-05 14:15N 37°54' E 000°03'1 0.1 15.9
2016-Feb-05 10:08N 37°54' E 000°03'0 0.5 15.9
2016-Feb-05 10:02N 37°54' E 000°03'1 8.6 15.9
2016-Feb-05 09:57N 37°53' E 000°03'0 0.1 15.8
2016-Feb-05 09:10N 37°53' E 000°03'0 0.3 15.8
2016-Feb-05 07:50N 37°53' E 000°03'0 3.1 15.8
2016-Feb-05 07:41N 37°53' E 000°04'0 0.0 15.8
2016-Feb-05 07:04N 37°53' E 000°04'0 0.5 15.8
2016-Feb-05 06:12N 37°53' E 000°03'0 0.0 15.8
2016-Feb-05 06:05N 37°53' E 000°03'1 1.5 15.8
2016-Feb-05 05:15N 37°52' E 000°05'2 1.1 15.8
2016-Feb-05 03:42N 37°53' E 000°06'0 0.0 15.8
2016-Feb-05 02:40N 37°53' E 000°06'0 0.0 15.8
2016-Feb-04 22:36N 37°53' E 000°06'1 1.2 15.9
2016-Feb-04 21:49N 37°54' E 000°07'0 0.0 15.9
2016-Feb-04 21:46N 37°54' E 000°07'0 4.5 15.9
2016-Feb-04 21:42N 37°54' E 000°07'0 0.0 15.9
2016-Feb-04 20:54N 37°54' E 000°07'1 7.6 15.9
2016-Feb-04 20:49N 37°55' E 000°06'0 0.0 15.9
2016-Feb-04 19:59N 37°55' E 000°06'1 3.4 15.9
2016-Feb-04 19:44N 37°55' E 000°05'0 0.1 15.9
2016-Feb-04 18:05N 37°55' E 000°06'0 1.5 15.9
2016-Feb-04 17:56N 37°55' E 000°05'0 0.0 15.9
2016-Feb-04 17:45N 37°55' E 000°05'1 0.5 15.9
2016-Feb-04 16:26N 37°55' E 000°04'0 0.0
2016-Feb-04 16:21N 37°55' E 000°04'1 1.8 15.9
2016-Feb-04 15:58N 37°55' E 000°04'0 0.0 15.9
2016-Feb-04 14:23N 37°55' E 000°04'110.5 15.9
2016-Feb-04 14:16N 37°54' E 000°02'0 0.0 15.9
2016-Feb-04 12:44N 37°54' E 000°02'0 0.0 15.9
2016-Feb-04 12:42N 37°54' E 000°02'1 0.3 15.9
2016-Feb-04 10:24N 37°54' E 000°02'2 0.7 15.9
2016-Feb-04 07:55N 37°53' E 000°04'0 0.0 15.9
2016-Feb-04 06:42N 37°53' E 000°04'0 0.7 15.9
2016-Feb-04 06:17N 37°53' E 000°05'1 1.7 15.9
2016-Feb-04 05:55N 37°53' E 000°05'3 0.7 15.9
2016-Feb-04 01:12N 37°56' E 000°06'0 0.0 15.9
2016-Feb-03 22:49N 37°56' E 000°06'0 0.0
2016-Feb-03 22:03N 37°56' E 000°06'0 0.2 16.0
2016-Feb-03 21:07N 37°56' E 000°07'0 0.1 16.0
2016-Feb-03 17:55N 37°56' E 000°06'0 0.4 16.0
2016-Feb-03 16:56N 37°55' E 000°06'1 0.3 16.0
2016-Feb-03 12:57N 37°55' E 000°08'2 0.7 16.0
2016-Feb-03 09:51N 37°55' E 000°11'1 1.5 16.0
2016-Feb-03 09:03N 37°56' E 000°12'0 0.0
2016-Feb-03 08:12N 37°56' E 000°12'0 1.3 16.0
2016-Feb-03 08:06N 37°56' E 000°11'1 0.4 16.0
2016-Feb-03 06:17N 37°56' E 000°12'0 0.1 15.9
2016-Feb-03 04:47N 37°57' E 000°12'1 0.7 15.9
2016-Feb-03 03:03N 37°58' E 000°12'0 0.0 15.9
2016-Feb-02 20:45N 37°58' E 000°12'010.1
2016-Feb-02 20:43N 37°58' E 000°13'0 0.9 16.0
2016-Feb-02 20:40N 37°58' E 000°13'0 0.0 16.0
2016-Feb-02 19:55N 37°58' E 000°13'0 1.5 16.0
2016-Feb-02 19:50N 37°58' E 000°13'0 0.2 16.0
2016-Feb-02 19:10N 37°58' E 000°13'1 7.6 16.0
2016-Feb-02 19:05N 37°58' E 000°13'1 1.6 16.0
2016-Feb-02 18:46N 37°58' E 000°13'0 0.1 16.0
2016-Feb-02 18:08N 37°58' E 000°13'0 0.0 16.1
2016-Feb-02 17:27N 37°58' E 000°13'0 0.3 16.2
2016-Feb-02 17:11N 37°58' E 000°13'1 0.4 16.3
2016-Feb-02 14:50N 37°58' E 000°14'1 0.4 16.5
2016-Feb-02 13:08N 37°59' E 000°13'0 0.0 16.2
2016-Feb-02 13:05N 37°59' E 000°13'0 0.4 16.2
2016-Feb-02 11:52N 37°59' E 000°14'0 0.2 16.2
2016-Feb-02 10:14N 37°59' E 000°13'0 0.0
2016-Feb-02 10:10N 37°59' E 000°13'0 0.1 16.0
2016-Feb-02 09:24N 37°59' E 000°13'0 0.0 15.9
2016-Feb-02 08:36N 37°59' E 000°13'0 1.1 15.9
2016-Feb-02 08:30N 37°59' E 000°13'1 2.3 15.9
2016-Feb-02 08:16N 37°59' E 000°12'1 0.9 15.9
2016-Feb-02 07:30N 37°60' E 000°13'0 0.0 15.9
2016-Feb-02 07:24N 37°60' E 000°13'0 0.0 15.9
2016-Feb-02 06:59N 37°60' E 000°13'0 0.1 15.9
2016-Feb-02 04:58N 37°60' E 000°13'0 0.0 15.9
2016-Feb-02 04:56N 37°60' E 000°13'0 0.6 15.9
2016-Feb-02 04:06N 38°00' E 000°13'1 0.1 15.9
2016-Feb-01 21:55N 38°00' E 000°12'0 2.3 16.1
2016-Feb-01 21:47N 38°01' E 000°12'0 0.0 16.1
2016-Feb-01 21:04N 38°01' E 000°12'0 0.0 16.2
2016-Feb-01 20:17N 38°01' E 000°12'0 0.4 16.2
2016-Feb-01 20:07N 38°01' E 000°12'1 0.7 16.2
2016-Feb-01 19:13N 38°01' E 000°12'0 0.3 16.0
2016-Feb-01 18:00N 38°01' E 000°12'0 0.2 16.2
2016-Feb-01 16:40N 38°01' E 000°12'1 5.7 16.4
2016-Feb-01 16:31N 38°01' E 000°11'0 0.0 16.4
2016-Feb-01 15:53N 38°01' E 000°11'1 1.0 16.6
2016-Feb-01 15:02N 38°01' E 000°12'1 4.7 16.9
2016-Feb-01 14:53N 38°01' E 000°11'0 0.0 16.9
2016-Feb-01 13:18N 38°01' E 000°11'0 1.7 16.8
2016-Feb-01 13:09N 38°01' E 000°11'0 0.0 16.7
2016-Feb-01 12:12N 38°01' E 000°11'0 0.3 16.4
2016-Feb-01 11:21N 38°01' E 000°10'0 0.1 16.2
2016-Feb-01 10:34N 38°02' E 000°11'0 3.7 16.1
2016-Feb-01 10:31N 38°01' E 000°11'0 0.5 16.1
2016-Feb-01 09:39N 38°01' E 000°10'0 0.0 15.9
2016-Feb-01 08:56N 38°01' E 000°10'0 4.6 15.9
2016-Feb-01 08:51N 38°02' E 000°10'0 0.0 15.9
2016-Feb-01 08:28N 38°02' E 000°10'0 0.0 15.9
2016-Feb-01 07:54N 38°02' E 000°10'1 5.5 15.9
2016-Feb-01 07:48N 38°01' E 000°10'0 0.0 15.9
2016-Feb-01 07:29N 38°01' E 000°10'0 0.4 15.9
2016-Feb-01 06:48N 38°01' E 000°10'0 0.0 15.9
2016-Feb-01 06:17N 38°01' E 000°10'0 4.1 15.9
2016-Feb-01 06:10N 38°01' E 000°09'0 0.0 15.9
2016-Feb-01 05:51N 38°01' E 000°09'0 0.2 15.9
2016-Feb-01 04:30N 38°02' E 000°09'0 0.0 15.9
2016-Feb-01 04:09N 38°02' E 000°09'1 0.9 15.9
2016-Feb-01 03:32N 38°02' E 000°09'0 0.0 15.9
2016-Feb-01 03:24N 38°02' E 000°09'0 0.0
2016-Feb-01 01:55N 38°02' E 000°09'0 0.9
2016-Feb-01 01:50N 38°02' E 000°08'1 0.2 15.9
2016-Jan-31 22:18N 38°02' E 000°08'0 4.9 15.9
2016-Jan-31 22:12N 38°02' E 000°07'0 0.0 15.9
2016-Jan-31 21:31N 38°02' E 000°07'0 0.5 15.9
2016-Jan-31 21:21N 38°02' E 000°07'0 0.0 15.9
2016-Jan-31 20:38N 38°02' E 000°07'0 1.7 15.9
2016-Jan-31 20:27N 38°02' E 000°06'0 0.5 15.9
2016-Jan-31 20:09N 38°02' E 000°07'1 1.4 15.9
2016-Jan-31 19:43N 38°02' E 000°06'0 0.0 15.9
2016-Jan-31 18:53N 38°02' E 000°06'0 0.0 15.9
2016-Jan-31 18:37N 38°02' E 000°06'0 0.0 15.9
2016-Jan-31 18:31N 38°02' E 000°06'0 0.5 15.9
2016-Jan-31 18:01N 38°02' E 000°06'0 5.0 15.9
2016-Jan-31 17:57N 38°01' E 000°05'0 0.0 15.9
2016-Jan-31 16:55N 38°01' E 000°05'0 2.9 16.0
2016-Jan-31 16:46N 38°01' E 000°05'1 1.1 16.0
2016-Jan-31 16:17N 38°01' E 000°05'2 0.6 16.0
2016-Jan-31 13:30N 38°01' E 000°03'1 0.5 15.9
2016-Jan-31 11:46N 38°01' E 000°02'0 0.5 15.9
2016-Jan-31 10:56N 38°01' E 000°02'0 0.4 15.9
2016-Jan-31 10:08N 38°01' E 000°02'0 0.4 15.9
2016-Jan-31 09:13N 38°01' E 000°02'0 0.5 15.9
2016-Jan-31 08:21N 38°01' E 000°01'0 0.3 15.9
2016-Jan-31 06:59N 38°01' E 000°01'0 0.5 15.9
2016-Jan-31 06:36N 38°01' E 000°01'0 1.1 15.9
2016-Jan-31 06:22N 38°01' E 000°01'1 0.6 15.9
2016-Jan-31 04:54N 38°01' W 000°00'0 0.0 15.9
2016-Jan-31 04:37N 38°01' W 000°00'0 0.5 15.9
2016-Jan-31 03:43N 38°01' E 000°00'0 0.3 15.9
2016-Jan-31 02:03N 38°01' W 000°00'1 0.3 15.9
2016-Jan-30 22:38N 38°01' W 000°02'1 5.1 15.9
2016-Jan-30 22:31N 38°01' W 000°02'1 1.2 15.9
2016-Jan-30 21:45N 38°00' W 000°03'0 0.0
2016-Jan-30 20:58N 38°00' W 000°03'0 1.0 16.0
2016-Jan-30 20:39N 38°00' W 000°03'0 0.8 16.0
2016-Jan-30 20:07N 38°00' W 000°03'0 0.5 16.0
2016-Jan-30 20:01N 38°00' W 000°03'0 0.0 16.0
2016-Jan-30 19:04N 38°00' W 000°03'0 3.8 16.0
2016-Jan-30 19:01N 38°00' W 000°03'2 1.0 16.0
2016-Jan-30 16:58N 37°59' W 000°06'1 0.9 16.1
2016-Jan-30 15:16N 37°58' W 000°05'1 0.2 16.1
2016-Jan-30 11:56N 37°57' W 000°04'0 0.0 15.9
2016-Jan-30 11:15N 37°57' W 000°04'1 0.3 15.9
2016-Jan-30 07:13N 37°57' W 000°03'0 0.0 15.9
2016-Jan-30 07:09N 37°57' W 000°03'0 0.1 15.9
2016-Jan-30 03:55N 37°57' W 000°02'1 0.5 15.9
2016-Jan-30 02:15N 37°56' W 000°03'1 0.3 15.9
2016-Jan-29 22:12N 37°55' W 000°03'0 0.0 15.9
2016-Jan-29 22:09N 37°55' W 000°03'1 5.5 15.9
2016-Jan-29 22:03N 37°55' W 000°03'0 0.0 15.9
2016-Jan-29 21:22N 37°55' W 000°03'0 0.0 15.9
2016-Jan-29 21:13N 37°55' W 000°03'0 2.2 15.9
2016-Jan-29 21:08N 37°55' W 000°03'2 1.1 15.9
2016-Jan-29 19:34N 37°54' W 000°01'120.2 15.9
2016-Jan-29 19:30N 37°54' W 000°03'1 1.9 15.9
2016-Jan-29 18:54N 37°54' W 000°04'1 1.3 16.0
2016-Jan-29 17:54N 37°54' W 000°02'0 0.7 16.0
2016-Jan-29 17:14N 37°54' W 000°02'0 1.0 16.0
2016-Jan-29 17:07N 37°54' W 000°02'1 0.4 16.0
2016-Jan-29 15:33N 37°53' W 000°01'0 2.9 16.0
2016-Jan-29 15:26N 37°53' W 000°01'0 0.0 16.0
2016-Jan-29 13:53N 37°53' W 000°01'0 1.7 16.0
2016-Jan-29 13:49N 37°53' W 000°01'0 0.3 16.0
2016-Jan-29 12:06N 37°53' W 000°00'0 0.0 16.0
2016-Jan-29 11:36N 37°53' W 000°00'0 0.2 15.9
2016-Jan-29 10:47N 37°53' E 000°00'0 0.4 15.9
2016-Jan-29 09:59N 37°53' E 000°01'0 0.8 15.9
2016-Jan-29 09:52N 37°53' E 000°01'0 0.3 15.9
2016-Jan-29 09:08N 37°53' E 000°01'0 0.0 15.9
2016-Jan-29 08:18N 37°53' E 000°01'0 1.5 15.9
2016-Jan-29 08:12N 37°53' E 000°01'0 0.0 15.9
2016-Jan-29 07:30N 37°53' E 000°01'0 0.2 15.9
2016-Jan-29 05:46N 37°53' E 000°01'0 0.0 15.9
2016-Jan-29 05:44N 37°53' E 000°01'0 0.0 15.9
2016-Jan-29 04:03N 37°53' E 000°01'0 0.3 15.9
2016-Jan-29 02:26N 37°53' E 000°00'1 0.2 15.9
2016-Jan-28 23:17N 37°53' W 000°00'0 0.0 15.9
2016-Jan-28 21:41N 37°53' W 000°00'0 1.2 16.0
2016-Jan-28 21:34N 37°53' W 000°01'1 7.8 16.0
2016-Jan-28 21:30N 37°53' W 000°00'1 0.8 16.0
2016-Jan-28 20:44N 37°53' W 000°01'0 0.5 16.0
2016-Jan-28 20:03N 37°53' W 000°01'0 0.0 16.0
2016-Jan-28 19:52N 37°53' W 000°01'0 0.0 16.0
2016-Jan-28 19:04N 37°53' W 000°01'0 0.1 16.0
2016-Jan-28 18:27N 37°53' W 000°01'0 0.1 16.0
2016-Jan-28 17:35N 37°53' W 000°01'0 0.5 16.0
2016-Jan-28 17:24N 37°53' W 000°00'0 1.2 16.1
2016-Jan-28 17:14N 37°52' W 000°01'0 0.5
2016-Jan-28 16:45N 37°52' W 000°00'0 0.0 16.2
2016-Jan-28 15:55N 37°52' W 000°00'0 1.5 16.2
2016-Jan-28 15:39N 37°52' W 000°01'0 0.2 16.2
2016-Jan-28 14:06N 37°52' W 000°01'0 0.0 16.3
2016-Jan-28 13:59N 37°52' W 000°01'0 0.0 16.3
2016-Jan-28 12:23N 37°52' W 000°01'0 3.5 16.1
2016-Jan-28 12:16N 37°52' W 000°01'0 0.0 16.1
2016-Jan-28 11:56N 37°52' W 000°01'0 0.1 16.0
2016-Jan-28 11:03N 37°52' W 000°01'0 0.0 16.0
2016-Jan-28 10:20N 37°52' W 000°01'0 0.0 16.0
2016-Jan-28 10:16N 37°52' W 000°01'0 4.0 16.0
2016-Jan-28 10:11N 37°52' W 000°01'0 0.0 16.0
2016-Jan-28 09:28N 37°52' W 000°01'0 0.0
2016-Jan-28 08:35N 37°52' W 000°01'0 0.3 15.9
2016-Jan-28 07:52N 37°52' W 000°01'0 0.5 15.9
2016-Jan-28 07:36N 37°52' W 000°01'1 0.4 15.9
2016-Jan-28 06:17N 37°52' W 000°02'0 1.8 15.9
2016-Jan-28 06:01N 37°52' W 000°01'1 7.4 15.9
2016-Jan-28 05:54N 37°52' W 000°02'0 0.0 16.0
2016-Jan-28 04:37N 37°52' W 000°02'1 4.4 16.0
2016-Jan-28 04:30N 37°51' W 000°02'1 0.2 16.0
2016-Jan-28 00:56N 37°51' W 000°02'0 0.0 16.0
2016-Jan-27 22:02N 37°51' W 000°02'0 2.2 16.0
2016-Jan-27 21:54N 37°51' W 000°01'0 1.2 16.0
2016-Jan-27 21:51N 37°51' W 000°01'0 0.0 16.0
2016-Jan-27 21:15N 37°51' W 000°01'0 0.0 16.0
2016-Jan-27 21:06N 37°51' W 000°01'0 0.0 16.0
2016-Jan-27 20:36N 37°51' W 000°01'0 0.0 16.0
2016-Jan-27 20:32N 37°51' W 000°01'0 0.0 16.0
2016-Jan-27 20:22N 37°51' W 000°01'0 1.6 16.0
2016-Jan-27 20:13N 37°50' W 000°01'0 0.0 16.0
2016-Jan-27 19:34N 37°50' W 000°01'0 0.0 16.0
2016-Jan-27 19:28N 37°50' W 000°01'0 0.1 16.0
2016-Jan-27 18:56N 37°50' W 000°01'0 0.2 16.1
2016-Jan-27 17:57N 37°50' W 000°01'0 0.0 16.2
2016-Jan-27 17:38N 37°50' W 000°01'0 0.7 16.2
2016-Jan-27 17:22N 37°50' W 000°01'0 0.6 16.2
2016-Jan-27 17:16N 37°50' W 000°01'0 0.1 16.2
2016-Jan-27 15:56N 37°50' W 000°01'0 0.1 16.6
2016-Jan-27 14:20N 37°50' W 000°01'1 0.6 16.8
2016-Jan-27 12:27N 37°49' W 000°02'  
Track history (hours):
 
Tides and Currents Weather Stations Pressure Air Temp Water Temp Dewpoint Dewpoint Depression Visibility Wind Speed Wind Dir Waves Ship Positions

Drifting buoy 62722

Last reported at 2016-Feb-06 12:19 UTC. Time now 2016-Feb-06 13:38 UTC.
Position N 37°52' W 000°05'.

Water temperature 15.9 ° C

Date/timePositionNaut miles runAvg speedWind from/ knotsBaromVisibWave heightAir tempDewpointWater temp
2016-Feb-06 12:19N 37°52' W 000°05'1 0.8 15.9
2016-Feb-06 11:23N 37°53' W 000°05'0 0.2 15.9
2016-Feb-06 10:30N 37°53' W 000°05'0 2.8 15.8
2016-Feb-06 10:25N 37°53' W 000°05'0 0.0 15.8
2016-Feb-06 09:44N 37°53' W 000°05'0 2.8 15.8
2016-Feb-06 09:36N 37°53' W 000°05'0 0.1 15.8
2016-Feb-06 08:48N 37°53' W 000°05'0 0.0 15.8
2016-Feb-06 07:37N 37°53' W 000°05'0 0.0 15.8
2016-Feb-06 07:33N 37°53' W 000°05'0 0.4 15.8
2016-Feb-06 06:34N 37°53' W 000°04'0 0.7 15.8
2016-Feb-06 05:53N 37°53' W 000°04'0 2.6 15.8
2016-Feb-06 05:46N 37°53' W 000°04'0 0.0 15.8
2016-Feb-06 04:55N 37°53' W 000°04'1 0.5 15.7
2016-Feb-06 02:36N 37°53' W 000°03'3 0.6 15.8
2016-Feb-05 22:15N 37°53' E 000°01'1 1.1 15.8
2016-Feb-05 21:25N 37°53' E 000°02'0 0.2 15.8
2016-Feb-05 20:32N 37°53' E 000°02'0 1.0 15.8
2016-Feb-05 20:25N 37°53' E 000°02'0 0.0 15.8
2016-Feb-05 19:47N 37°53' E 000°02'1 4.5 15.8
2016-Feb-05 19:38N 37°53' E 000°03'0 0.0 15.8
2016-Feb-05 19:19N 37°53' E 000°03'1 6.1 15.8
2016-Feb-05 19:11N 37°54' E 000°03'0 0.0 15.8
2016-Feb-05 18:50N 37°54' E 000°03'0 0.3
2016-Feb-05 17:37N 37°54' E 000°03'014.7 15.9
2016-Feb-05 17:35N 37°54' E 000°03'0 0.0 15.9
2016-Feb-05 17:26N 37°54' E 000°03'1 0.2
2016-Feb-05 14:15N 37°54' E 000°03'1 0.1 15.9
2016-Feb-05 10:08N 37°54' E 000°03'0 0.5 15.9
2016-Feb-05 10:02N 37°54' E 000°03'1 8.6 15.9
2016-Feb-05 09:57N 37°53' E 000°03'0 0.1 15.8
2016-Feb-05 09:10N 37°53' E 000°03'0 0.3 15.8
2016-Feb-05 07:50N 37°53' E 000°03'0 3.1 15.8
2016-Feb-05 07:41N 37°53' E 000°04'0 0.0 15.8
2016-Feb-05 07:04N 37°53' E 000°04'0 0.5 15.8
2016-Feb-05 06:12N 37°53' E 000°03'0 0.0 15.8
2016-Feb-05 06:05N 37°53' E 000°03'1 1.5 15.8
2016-Feb-05 05:15N 37°52' E 000°05'2 1.1 15.8
2016-Feb-05 03:42N 37°53' E 000°06'0 0.0 15.8
2016-Feb-05 02:40N 37°53' E 000°06'0 0.0 15.8
2016-Feb-04 22:36N 37°53' E 000°06'1 1.2 15.9
2016-Feb-04 21:49N 37°54' E 000°07'0 0.0 15.9
2016-Feb-04 21:46N 37°54' E 000°07'0 4.5 15.9
2016-Feb-04 21:42N 37°54' E 000°07'0 0.0 15.9
2016-Feb-04 20:54N 37°54' E 000°07'1 7.6 15.9
2016-Feb-04 20:49N 37°55' E 000°06'0 0.0 15.9
2016-Feb-04 19:59N 37°55' E 000°06'1 3.4 15.9
2016-Feb-04 19:44N 37°55' E 000°05'0 0.1 15.9
2016-Feb-04 18:05N 37°55' E 000°06'0 1.5 15.9
2016-Feb-04 17:56N 37°55' E 000°05'0 0.0 15.9
2016-Feb-04 17:45N 37°55' E 000°05'1 0.5 15.9
2016-Feb-04 16:26N 37°55' E 000°04'0 0.0
2016-Feb-04 16:21N 37°55' E 000°04'1 1.8 15.9
2016-Feb-04 15:58N 37°55' E 000°04'0 0.0 15.9
2016-Feb-04 14:23N 37°55' E 000°04'110.5 15.9
2016-Feb-04 14:16N 37°54' E 000°02'0 0.0 15.9
2016-Feb-04 12:44N 37°54' E 000°02'0 0.0 15.9
2016-Feb-04 12:42N 37°54' E 000°02'1 0.3 15.9
2016-Feb-04 10:24N 37°54' E 000°02'2 0.7 15.9
2016-Feb-04 07:55N 37°53' E 000°04'0 0.0 15.9
2016-Feb-04 06:42N 37°53' E 000°04'0 0.7 15.9
2016-Feb-04 06:17N 37°53' E 000°05'1 1.7 15.9
2016-Feb-04 05:55N 37°53' E 000°05'3 0.7 15.9
2016-Feb-04 01:12N 37°56' E 000°06'0 0.0 15.9
2016-Feb-03 22:49N 37°56' E 000°06'0 0.0
2016-Feb-03 22:03N 37°56' E 000°06'0 0.2 16.0
2016-Feb-03 21:07N 37°56' E 000°07'0 0.1 16.0
2016-Feb-03 17:55N 37°56' E 000°06'0 0.4 16.0
2016-Feb-03 16:56N 37°55' E 000°06'1 0.3 16.0
2016-Feb-03 12:57N 37°55' E 000°08'2 0.7 16.0
2016-Feb-03 09:51N 37°55' E 000°11'1 1.5 16.0
2016-Feb-03 09:03N 37°56' E 000°12'0 0.0
2016-Feb-03 08:12N 37°56' E 000°12'0 1.3 16.0
2016-Feb-03 08:06N 37°56' E 000°11'1 0.4 16.0
2016-Feb-03 06:17N 37°56' E 000°12'0 0.1 15.9
2016-Feb-03 04:47N 37°57' E 000°12'1 0.7 15.9
2016-Feb-03 03:03N 37°58' E 000°12'0 0.0 15.9
2016-Feb-02 20:45N 37°58' E 000°12'010.1
2016-Feb-02 20:43N 37°58' E 000°13'0 0.9 16.0
2016-Feb-02 20:40N 37°58' E 000°13'0 0.0 16.0
2016-Feb-02 19:55N 37°58' E 000°13'0 1.5 16.0
2016-Feb-02 19:50N 37°58' E 000°13'0 0.2 16.0
2016-Feb-02 19:10N 37°58' E 000°13'1 7.6 16.0
2016-Feb-02 19:05N 37°58' E 000°13'1 1.6 16.0
2016-Feb-02 18:46N 37°58' E 000°13'0 0.1 16.0
2016-Feb-02 18:08N 37°58' E 000°13'0 0.0 16.1
2016-Feb-02 17:27N 37°58' E 000°13'0 0.3 16.2
2016-Feb-02 17:11N 37°58' E 000°13'1 0.4 16.3
2016-Feb-02 14:50N 37°58' E 000°14'1 0.4 16.5
2016-Feb-02 13:08N 37°59' E 000°13'0 0.0 16.2
2016-Feb-02 13:05N 37°59' E 000°13'0 0.4 16.2
2016-Feb-02 11:52N 37°59' E 000°14'0 0.2 16.2
2016-Feb-02 10:14N 37°59' E 000°13'0 0.0
2016-Feb-02 10:10N 37°59' E 000°13'0 0.1 16.0
2016-Feb-02 09:24N 37°59' E 000°13'0 0.0 15.9
2016-Feb-02 08:36N 37°59' E 000°13'0 1.1 15.9
2016-Feb-02 08:30N 37°59' E 000°13'1 2.3 15.9
2016-Feb-02 08:16N 37°59' E 000°12'1 0.9 15.9
2016-Feb-02 07:30N 37°60' E 000°13'0 0.0 15.9
2016-Feb-02 07:24N 37°60' E 000°13'0 0.0 15.9
2016-Feb-02 06:59N 37°60' E 000°13'0 0.1 15.9
2016-Feb-02 04:58N 37°60' E 000°13'0 0.0 15.9
2016-Feb-02 04:56N 37°60' E 000°13'0 0.6 15.9
2016-Feb-02 04:06N 38°00' E 000°13'1 0.1 15.9
2016-Feb-01 21:55N 38°00' E 000°12'0 2.3 16.1
2016-Feb-01 21:47N 38°01' E 000°12'0 0.0 16.1
2016-Feb-01 21:04N 38°01' E 000°12'0 0.0 16.2
2016-Feb-01 20:17N 38°01' E 000°12'0 0.4 16.2
2016-Feb-01 20:07N 38°01' E 000°12'1 0.7 16.2
2016-Feb-01 19:13N 38°01' E 000°12'0 0.3 16.0
2016-Feb-01 18:00N 38°01' E 000°12'0 0.2 16.2
2016-Feb-01 16:40N 38°01' E 000°12'1 5.7 16.4
2016-Feb-01 16:31N 38°01' E 000°11'0 0.0 16.4
2016-Feb-01 15:53N 38°01' E 000°11'1 1.0 16.6
2016-Feb-01 15:02N 38°01' E 000°12'1 4.7 16.9
2016-Feb-01 14:53N 38°01' E 000°11'0 0.0 16.9
2016-Feb-01 13:18N 38°01' E 000°11'0 1.7 16.8
2016-Feb-01 13:09N 38°01' E 000°11'0 0.0 16.7
2016-Feb-01 12:12N 38°01' E 000°11'0 0.3 16.4
2016-Feb-01 11:21N 38°01' E 000°10'0 0.1 16.2
2016-Feb-01 10:34N 38°02' E 000°11'0 3.7 16.1
2016-Feb-01 10:31N 38°01' E 000°11'0 0.5 16.1
2016-Feb-01 09:39N 38°01' E 000°10'0 0.0 15.9
2016-Feb-01 08:56N 38°01' E 000°10'0 4.6 15.9
2016-Feb-01 08:51N 38°02' E 000°10'0 0.0 15.9
2016-Feb-01 08:28N 38°02' E 000°10'0 0.0 15.9
2016-Feb-01 07:54N 38°02' E 000°10'1 5.5 15.9
2016-Feb-01 07:48N 38°01' E 000°10'0 0.0 15.9
2016-Feb-01 07:29N 38°01' E 000°10'0 0.4 15.9
2016-Feb-01 06:48N 38°01' E 000°10'0 0.0 15.9
2016-Feb-01 06:17N 38°01' E 000°10'0 4.1 15.9
2016-Feb-01 06:10N 38°01' E 000°09'0 0.0 15.9
2016-Feb-01 05:51N 38°01' E 000°09'0 0.2 15.9
2016-Feb-01 04:30N 38°02' E 000°09'0 0.0 15.9
2016-Feb-01 04:09N 38°02' E 000°09'1 0.9 15.9
2016-Feb-01 03:32N 38°02' E 000°09'0 0.0 15.9
2016-Feb-01 03:24N 38°02' E 000°09'0 0.0
2016-Feb-01 01:55N 38°02' E 000°09'0 0.9
2016-Feb-01 01:50N 38°02' E 000°08'1 0.2 15.9
2016-Jan-31 22:18N 38°02' E 000°08'0 4.9 15.9
2016-Jan-31 22:12N 38°02' E 000°07'0 0.0 15.9
2016-Jan-31 21:31N 38°02' E 000°07'0 0.5 15.9
2016-Jan-31 21:21N 38°02' E 000°07'0 0.0 15.9
2016-Jan-31 20:38N 38°02' E 000°07'0 1.7 15.9
2016-Jan-31 20:27N 38°02' E 000°06'0 0.5 15.9
2016-Jan-31 20:09N 38°02' E 000°07'1 1.4 15.9
2016-Jan-31 19:43N 38°02' E 000°06'0 0.0 15.9
2016-Jan-31 18:53N 38°02' E 000°06'0 0.0 15.9
2016-Jan-31 18:37N 38°02' E 000°06'0 0.0 15.9
2016-Jan-31 18:31N 38°02' E 000°06'0 0.5 15.9
2016-Jan-31 18:01N 38°02' E 000°06'0 5.0 15.9
2016-Jan-31 17:57N 38°01' E 000°05'0 0.0 15.9
2016-Jan-31 16:55N 38°01' E 000°05'0 2.9 16.0
2016-Jan-31 16:46N 38°01' E 000°05'1 1.1 16.0
2016-Jan-31 16:17N 38°01' E 000°05'2 0.6 16.0
2016-Jan-31 13:30N 38°01' E 000°03'1 0.5 15.9
2016-Jan-31 11:46N 38°01' E 000°02'0 0.5 15.9
2016-Jan-31 10:56N 38°01' E 000°02'0 0.4 15.9
2016-Jan-31 10:08N 38°01' E 000°02'0 0.4 15.9
2016-Jan-31 09:13N 38°01' E 000°02'0 0.5 15.9
2016-Jan-31 08:21N 38°01' E 000°01'0 0.3 15.9
2016-Jan-31 06:59N 38°01' E 000°01'0 0.5 15.9
2016-Jan-31 06:36N 38°01' E 000°01'0 1.1 15.9
2016-Jan-31 06:22N 38°01' E 000°01'1 0.6 15.9
2016-Jan-31 04:54N 38°01' W 000°00'0 0.0 15.9
2016-Jan-31 04:37N 38°01' W 000°00'0 0.5 15.9
2016-Jan-31 03:43N 38°01' E 000°00'0 0.3 15.9
2016-Jan-31 02:03N 38°01' W 000°00'1 0.3 15.9
2016-Jan-30 22:38N 38°01' W 000°02'1 5.1 15.9
2016-Jan-30 22:31N 38°01' W 000°02'1 1.2 15.9
2016-Jan-30 21:45N 38°00' W 000°03'0 0.0
2016-Jan-30 20:58N 38°00' W 000°03'0 1.0 16.0
2016-Jan-30 20:39N 38°00' W 000°03'0 0.8 16.0
2016-Jan-30 20:07N 38°00' W 000°03'0 0.5 16.0
2016-Jan-30 20:01N 38°00' W 000°03'0 0.0 16.0
2016-Jan-30 19:04N 38°00' W 000°03'0 3.8 16.0
2016-Jan-30 19:01N 38°00' W 000°03'2 1.0 16.0
2016-Jan-30 16:58N 37°59' W 000°06'1 0.9 16.1
2016-Jan-30 15:16N 37°58' W 000°05'1 0.2 16.1
2016-Jan-30 11:56N 37°57' W 000°04'0 0.0 15.9
2016-Jan-30 11:15N 37°57' W 000°04'1 0.3 15.9
2016-Jan-30 07:13N 37°57' W 000°03'0 0.0 15.9
2016-Jan-30 07:09N 37°57' W 000°03'0 0.1 15.9
2016-Jan-30 03:55N 37°57' W 000°02'1 0.5 15.9
2016-Jan-30 02:15N 37°56' W 000°03'1 0.3 15.9
2016-Jan-29 22:12N 37°55' W 000°03'0 0.0 15.9
2016-Jan-29 22:09N 37°55' W 000°03'1 5.5 15.9
2016-Jan-29 22:03N 37°55' W 000°03'0 0.0 15.9
2016-Jan-29 21:22N 37°55' W 000°03'0 0.0 15.9
2016-Jan-29 21:13N 37°55' W 000°03'0 2.2 15.9
2016-Jan-29 21:08N 37°55' W 000°03'2 1.1 15.9
2016-Jan-29 19:34N 37°54' W 000°01'120.2 15.9
2016-Jan-29 19:30N 37°54' W 000°03'1 1.9 15.9
2016-Jan-29 18:54N 37°54' W 000°04'1 1.3 16.0
2016-Jan-29 17:54N 37°54' W 000°02'0 0.7 16.0
2016-Jan-29 17:14N 37°54' W 000°02'0 1.0 16.0
2016-Jan-29 17:07N 37°54' W 000°02'1 0.4 16.0
2016-Jan-29 15:33N 37°53' W 000°01'0 2.9 16.0
2016-Jan-29 15:26N 37°53' W 000°01'0 0.0 16.0
2016-Jan-29 13:53N 37°53' W 000°01'0 1.7 16.0
2016-Jan-29 13:49N 37°53' W 000°01'0 0.3 16.0
2016-Jan-29 12:06N 37°53' W 000°00'0 0.0 16.0
2016-Jan-29 11:36N 37°53' W 000°00'0 0.2 15.9
2016-Jan-29 10:47N 37°53' E 000°00'0 0.4 15.9
2016-Jan-29 09:59N 37°53' E 000°01'0 0.8 15.9
2016-Jan-29 09:52N 37°53' E 000°01'0 0.3 15.9
2016-Jan-29 09:08N 37°53' E 000°01'0 0.0 15.9
2016-Jan-29 08:18N 37°53' E 000°01'0 1.5 15.9
2016-Jan-29 08:12N 37°53' E 000°01'0 0.0 15.9
2016-Jan-29 07:30N 37°53' E 000°01'0 0.2 15.9
2016-Jan-29 05:46N 37°53' E 000°01'0 0.0 15.9
2016-Jan-29 05:44N 37°53' E 000°01'0 0.0 15.9
2016-Jan-29 04:03N 37°53' E 000°01'0 0.3 15.9
2016-Jan-29 02:26N 37°53' E 000°00'1 0.2 15.9
2016-Jan-28 23:17N 37°53' W 000°00'0 0.0 15.9
2016-Jan-28 21:41N 37°53' W 000°00'0 1.2 16.0
2016-Jan-28 21:34N 37°53' W 000°01'1 7.8 16.0
2016-Jan-28 21:30N 37°53' W 000°00'1 0.8 16.0
2016-Jan-28 20:44N 37°53' W 000°01'0 0.5 16.0
2016-Jan-28 20:03N 37°53' W 000°01'0 0.0 16.0
2016-Jan-28 19:52N 37°53' W 000°01'0 0.0 16.0
2016-Jan-28 19:04N 37°53' W 000°01'0 0.1 16.0
2016-Jan-28 18:27N 37°53' W 000°01'0 0.1 16.0
2016-Jan-28 17:35N 37°53' W 000°01'0 0.5 16.0
2016-Jan-28 17:24N 37°53' W 000°00'0 1.2 16.1
2016-Jan-28 17:14N 37°52' W 000°01'0 0.5
2016-Jan-28 16:45N 37°52' W 000°00'0 0.0 16.2
2016-Jan-28 15:55N 37°52' W 000°00'0 1.5 16.2
2016-Jan-28 15:39N 37°52' W 000°01'0 0.2 16.2
2016-Jan-28 14:06N 37°52' W 000°01'0 0.0 16.3
2016-Jan-28 13:59N 37°52' W 000°01'0 0.0 16.3
2016-Jan-28 12:23N 37°52' W 000°01'0 3.5 16.1
2016-Jan-28 12:16N 37°52' W 000°01'0 0.0 16.1
2016-Jan-28 11:56N 37°52' W 000°01'0 0.1 16.0
2016-Jan-28 11:03N 37°52' W 000°01'0 0.0 16.0
2016-Jan-28 10:20N 37°52' W 000°01'0 0.0 16.0
2016-Jan-28 10:16N 37°52' W 000°01'0 4.0 16.0
2016-Jan-28 10:11N 37°52' W 000°01'0 0.0 16.0
2016-Jan-28 09:28N 37°52' W 000°01'0 0.0
2016-Jan-28 08:35N 37°52' W 000°01'0 0.3 15.9
2016-Jan-28 07:52N 37°52' W 000°01'0 0.5 15.9
2016-Jan-28 07:36N 37°52' W 000°01'1 0.4 15.9
2016-Jan-28 06:17N 37°52' W 000°02'0 1.8 15.9
2016-Jan-28 06:01N 37°52' W 000°01'1 7.4 15.9
2016-Jan-28 05:54N 37°52' W 000°02'0 0.0 16.0
2016-Jan-28 04:37N 37°52' W 000°02'1 4.4 16.0
2016-Jan-28 04:30N 37°51' W 000°02'1 0.2 16.0
2016-Jan-28 00:56N 37°51' W 000°02'0 0.0 16.0
2016-Jan-27 22:02N 37°51' W 000°02'0 2.2 16.0
2016-Jan-27 21:54N 37°51' W 000°01'0 1.2 16.0
2016-Jan-27 21:51N 37°51' W 000°01'0 0.0 16.0
2016-Jan-27 21:15N 37°51' W 000°01'0 0.0 16.0
2016-Jan-27 21:06N 37°51' W 000°01'0 0.0 16.0
2016-Jan-27 20:36N 37°51' W 000°01'0 0.0 16.0
2016-Jan-27 20:32N 37°51' W 000°01'0 0.0 16.0
2016-Jan-27 20:22N 37°51' W 000°01'0 1.6 16.0
2016-Jan-27 20:13N 37°50' W 000°01'0 0.0 16.0
2016-Jan-27 19:34N 37°50' W 000°01'0 0.0 16.0
2016-Jan-27 19:28N 37°50' W 000°01'0 0.1 16.0
2016-Jan-27 18:56N 37°50' W 000°01'0 0.2 16.1
2016-Jan-27 17:57N 37°50' W 000°01'0 0.0 16.2
2016-Jan-27 17:38N 37°50' W 000°01'0 0.7 16.2
2016-Jan-27 17:22N 37°50' W 000°01'0 0.6 16.2
2016-Jan-27 17:16N 37°50' W 000°01'0 0.1 16.2
2016-Jan-27 15:56N 37°50' W 000°01'0 0.1 16.6
2016-Jan-27 14:20N 37°50' W 000°01'1 0.6 16.8
2016-Jan-27 12:27N 37°49' W 000°02'  

Dump ship's entire track history